Kirill Martynovich

Olheiro - BATE
3 Dez 2028
Domingo
Processo

Personalidade

Adaptabilidade (13) Ambição (8) Controvérsia (14) Lealdade (13) Pressão (5) Profissionalismo (3) Espírito Esportivo (6) Temperamento (2)

Perfil

Estilo de Treinamento Democrático
Licença Continental A
Determinação 8
Gestão de Pessoas 8
Motivação 5
Disciplina 4
Satisfação no Trabalho
100%
Fadiga
0%
Função Olheiro
Salário 70.9K p/s
Contrato 14.03.2030

Desempenho

Comportamento Bom
Eficácia do Treinamento
30%
Desenvolvimento do Jogador
20%
Prevenção de Lesões
25%
Implementação Tática
25%

Eventos Recentes

Participou de uma reunião de recrutamento 7d atrás
Participou de uma reunião de recrutamento 14d atrás
Participou de uma reunião de recrutamento 21d atrás
Participou de uma reunião de recrutamento 28d atrás
Participou de uma reunião de recrutamento 35d atrás
Participou de uma reunião de recrutamento 42d atrás
Participou de uma reunião de recrutamento 49d atrás
Participou de uma reunião de recrutamento 56d atrás

Monitorando agora

71
Jogador Clube Status Habilidade Confiança Observado Última observação Último voto
Daniil Kulikov Belshina Ativo 80 / 88 48% 1 07.08.2028 -
Guljigit Alykulov Dinamo Minsk Ativo 103 / 102 48% 1 26.06.2028 -
Rostislav Soldatenko Torpedo Moscow Ativo 117 / 99 40% 1 23.01.2028 -
Yegor Lyubakov Arsenal Tula Ativo 110 / 98 40% 1 23.01.2028 -
Yegor Koshkin Pobeda Ativo 88 / 92 40% 1 22.01.2028 -
Maxim Vafiev Torpedo Vladimir Ativo 85 / 81 40% 1 22.01.2028 -
Ilja Vakhania Krasnodar Ativo 112 / 116 40% 5 19.01.2028 -
Sergey Varatynov Baltika Ativo 123 / 127 40% 2 19.01.2028 -
Marcelo Alves SKA Khabarovsk Ativo 107 / 110 40% 1 18.01.2028 -
Konstantin Kovalev Volga Ativo 87 / 103 40% 1 18.01.2028 -
Evgeny Latyshonok Nizhniy Novgorod Ativo 134 / 129 40% 2 17.01.2028 -
Ivan Lomaev Ufa Ativo 116 / 122 40% 1 17.01.2028 -
Stefan Kovač Baltika Ativo 122 / 113 40% 2 14.01.2028 -
Konstantin Kertanov Chelyabinsk Ativo 87 / 101 40% 1 14.01.2028 -
Darko Todorović Fakel Ativo 122 / 124 40% 4 11.01.2028 -
David Shavlokhov Chernomorets Ativo 95 / 100 40% 1 11.01.2028 -
Matías Budiño Colón Ativo 111 / 119 40% 1 10.01.2028 -
Ilja Tuseev Chelyabinsk Ativo 106 / 97 40% 1 10.01.2028 -
Matvey Bardachev Zenit Ativo 110 / 120 40% 1 09.01.2028 -
Maxime Sivis Orenburg Ativo 118 / 121 40% 3 08.01.2028 -
Alexandr Ivankov Torpedo Moscow Ativo 106 / 103 40% 1 08.01.2028 -
Fernando Costanza Krylya Sovetov Ativo 118 / 120 40% 2 05.01.2028 -
Ignacio Saavedra Sochi Ativo 129 / 114 40% 3 04.01.2028 -
Nikita Pavlov Chaika Ativo 91 / 84 40% 1 04.01.2028 -
Stefan Lončar Akron Ativo 105 / 109 40% 1 30.12.2027 -
Luciano Recalde Quilmes Ativo 100 / 111 40% 1 30.12.2027 -
Leo Goglichidze Rodina Ativo 110 / 108 40% 1 23.12.2027 -
Danil Krugovoy Orenburg Ativo 122 / 135 40% 1 21.12.2027 -
Edgardo Fariña Nizhniy Novgorod Ativo 115 / 121 40% 2 20.12.2027 -
Franco Hanashiro Colegiales Ativo 107 / 103 40% 1 18.12.2027 -
Iker Pozo Rodina Ativo 118 / 120 40% 2 11.12.2027 -
Ferland Mendy Real Madrid Ativo 136 / 134 40% 1 13.06.2027 -
Egas Cacintura Akhmat Grozny Ativo 130 / 118 40% 1 24.01.2027 -
Ivan Komarov Rostov Ativo 101 / 114 40% 1 21.01.2027 -
Timofey Shipunov Ufa Ativo 87 / 97 40% 1 21.01.2027 -
Krasian Kolev Chernomorets Ativo 100 / 97 40% 1 20.01.2027 -
Lechi Sadulaev Akhmat Grozny Ativo 118 / 117 40% 1 20.01.2027 -
Victor Melekhin Rostov Ativo 113 / 115 40% 1 19.01.2027 -
Ilja Agapov Ufa Ativo 110 / 115 40% 2 18.01.2027 -
Robert Mejía Orenburg Ativo 117 / 108 40% 2 17.01.2027 -
Mitja Križan Rodina Ativo 104 / 113 40% 1 17.01.2027 -
Temirkan Sundukov Dinamo Makhachkala Ativo 102 / 109 40% 2 15.01.2027 -
Artur Murza Volga Ativo 87 / 94 40% 1 13.01.2027 -
Ousmane Ndong Akhmat Grozny Ativo 119 / 105 40% 2 12.01.2027 -
Alexandr Filin Baltika Ativo 125 / 115 40% 2 10.01.2027 -
Arsen Adamov Akhmat Grozny Ativo 132 / 124 40% 1 10.01.2027 -
Nathan Gassama Baltika Ativo 114 / 109 40% 1 08.01.2027 -
Nuri Abdokov Fakel Ativo 99 / 100 40% 1 07.01.2027 -
Andrey Nikitin Neftekhimik Ativo 98 / 88 40% 1 07.01.2027 -
Miroslav Bogosavac Akhmat Grozny Ativo 114 / 110 40% 1 04.01.2027 -
David Kokoev Yenisey Ativo 92 / 100 40% 1 03.01.2027 -
Edu Expósito Espanyol Ativo 120 / 127 40% 1 01.01.2027 -
Andrey Langovich Rostov Ativo 115 / 116 40% 1 30.12.2026 -
Magomed Nasibov Pobeda Ativo 73 / 93 40% 1 30.12.2026 -
Tenton Yenne Baltika Ativo 108 / 104 40% 1 30.12.2026 -
Nikolay Boyarkin Salyut Ativo 90 / 92 40% 1 29.12.2026 -
Denis Mikhailov Amkar Ativo 73 / 83 40% 1 26.12.2026 -
Dardan Shabanhaxhaj Rubin Ativo 126 / 111 40% 2 24.12.2026 -
Anderson Arroyo Rubin Ativo 125 / 111 40% 2 24.12.2026 -
Danila Vedernikov Orenburg Ativo 99 / 108 40% 1 22.12.2026 -
Veldin Hodža Rubin Ativo 116 / 123 40% 1 22.12.2026 -
Bojan Roganović Torpedo Moscow Ativo 93 / 101 40% 1 17.12.2026 -
Maxim Mukhin Rostov Ativo 120 / 120 40% 1 14.12.2026 -
Daniil Agureev Amkar Ativo 86 / 85 40% 1 14.12.2026 -
Alexey Mironov Rostov Ativo 129 / 114 40% 1 10.12.2026 -
Marat Bokoev Akron Ativo 121 / 121 40% 1 10.12.2026 -
Thomas Galdames Krylya Sovetov Ativo 107 / 116 40% 1 07.12.2026 -
Sidney Lima Santa Clara Ativo 143 / 135 40% 1 02.11.2026 -
Dan Casey Wycombe Wanderers Ativo 128 / 103 40% 1 09.10.2026 -
Facundo Miño Deportivo Riestra Ativo 107 / 117 40% 1 05.10.2026 -
Marcelino Moreno Lanús Ativo 137 / 128 40% 1 02.08.2026 -